Time;durP1;ratioP1;P1;durP2;ratioP2;P2;SDS_P1;SDS_P2;PMS_P1;PMS_P2;Temp;Humidity;BMP_temperature;BMP_pressure;BME280_temperature;BME280_humidity;BME280_pressure;Samples;Min_cycle;Max_cycle;Signal;HPM_P1;HPM_P2
2023/08/01 00:01:11;;;;;;;5.03;4.63;;;;;;;;;;5005487;28;20231;-82
2023/08/01 00:03:38;;;;;;;4.82;4.43;;;;;;;;;;4990182;28;20230;-81
2023/08/01 00:06:06;;;;;;;4.78;4.28;;;;;;;;;;4966670;28;20226;-84
2023/08/01 00:08:34;;;;;;;4.93;4.63;;;;;;;;;;4997688;28;20953;-80
2023/08/01 00:11:02;;;;;;;4.68;4.25;;;;;;;;;;5001345;28;20691;-85
2023/08/01 00:13:27;;;;;;;5.20;4.80;;;;;;;;;;4999239;28;20237;-84
2023/08/01 00:15:55;;;;;;;5.00;4.57;;;;;;;;;;4966909;28;20221;-83
2023/08/01 00:18:21;;;;;;;5.13;4.72;;;;;;;;;;4996689;28;20226;-82
2023/08/01 00:20:49;;;;;;;5.00;4.60;;;;;;;;;;4978656;28;20225;-84
2023/08/01 00:23:14;;;;;;;5.40;5.00;;;;;;;;;;4949721;28;20218;-83
2023/08/01 00:25:40;;;;;;;5.35;4.85;;;;;;;;;;4980580;28;20590;-83
2023/08/01 00:28:05;;;;;;;5.93;5.40;;;;;;;;;;4976308;28;20221;-85
2023/08/01 00:30:36;;;;;;;5.35;4.95;;;;;;;;;;4959980;28;20230;-81
2023/08/01 00:33:04;;;;;;;6.43;4.55;;;;;;;;;;4956113;28;20540;-84
2023/08/01 00:35:29;;;;;;;5.20;4.90;;;;;;;;;;4978525;28;20232;-84
2023/08/01 00:37:55;;;;;;;5.07;4.78;;;;;;;;;;4968635;28;20229;-85
2023/08/01 00:40:25;;;;;;;5.82;5.32;;;;;;;;;;4967647;28;20222;-82
2023/08/01 00:42:56;;;;;;;6.10;5.40;;;;;;;;;;4997921;28;20229;-82
2023/08/01 00:45:24;;;;;;;5.60;5.20;;;;;;;;;;4993796;28;20240;-85
2023/08/01 00:47:51;;;;;;;5.88;5.40;;;;;;;;;;4965422;28;20379;-83
2023/08/01 00:50:21;;;;;;;6.35;5.70;;;;;;;;;;4979233;28;20225;-82
2023/08/01 00:52:47;;;;;;;6.20;5.60;;;;;;;;;;4966793;28;20222;-81
2023/08/01 00:55:19;;;;;;;6.07;5.68;;;;;;;;;;4990843;28;20634;-82
2023/08/01 00:57:44;;;;;;;5.97;5.47;;;;;;;;;;4976414;28;20234;-84
2023/08/01 01:00:11;;;;;;;5.53;5.07;;;;;;;;;;4979487;28;20769;-81
2023/08/01 01:02:36;;;;;;;6.13;5.72;;;;;;;;;;4974094;28;20231;-86
2023/08/01 01:05:02;;;;;;;6.07;5.57;;;;;;;;;;4987431;28;20281;-80
2023/08/01 01:07:31;;;;;;;6.13;5.63;;;;;;;;;;4999792;28;20362;-80
2023/08/01 01:09:57;;;;;;;6.05;5.55;;;;;;;;;;4997183;28;20263;-86
2023/08/01 01:12:24;;;;;;;7.15;6.55;;;;;;;;;;4990067;28;20237;-83
2023/08/01 01:14:53;;;;;;;6.90;5.70;;;;;;;;;;4989285;28;20265;-83
2023/08/01 01:17:18;;;;;;;5.65;5.22;;;;;;;;;;4988953;28;20218;-84
2023/08/01 01:19:46;;;;;;;5.85;5.45;;;;;;;;;;4968481;28;20227;-82
2023/08/01 01:22:12;;;;;;;6.65;6.07;;;;;;;;;;4978704;28;20222;-83
2023/08/01 01:24:45;;;;;;;6.53;5.93;;;;;;;;;;4966412;28;20213;-84
2023/08/01 01:27:10;;;;;;;5.75;5.30;;;;;;;;;;4973592;28;20233;-82
2023/08/01 01:29:36;;;;;;;6.10;5.50;;;;;;;;;;4987980;28;20233;-83
2023/08/01 01:32:04;;;;;;;5.72;5.30;;;;;;;;;;4999844;28;20226;-86
2023/08/01 01:34:32;;;;;;;5.82;5.32;;;;;;;;;;4977462;28;20230;-83
2023/08/01 01:36:59;;;;;;;5.22;4.90;;;;;;;;;;5013738;28;20234;-84
2023/08/01 01:39:26;;;;;;;5.38;4.97;;;;;;;;;;4964703;28;20295;-86
2023/08/01 01:41:59;;;;;;;5.07;4.60;;;;;;;;;;4966224;28;20233;-86
2023/08/01 01:44:27;;;;;;;4.38;3.97;;;;;;;;;;5000895;28;20599;-85
2023/08/01 01:46:54;;;;;;;4.15;3.78;;;;;;;;;;5002036;28;20289;-85
2023/08/01 01:49:19;;;;;;;6.15;4.47;;;;;;;;;;4979320;28;20285;-86
2023/08/01 01:51:47;;;;;;;4.82;4.35;;;;;;;;;;4968892;28;20240;-84
2023/08/01 01:54:13;;;;;;;5.18;4.65;;;;;;;;;;4986477;28;20232;-86
2023/08/01 01:56:40;;;;;;;5.45;4.50;;;;;;;;;;5000578;28;20222;-85
2023/08/01 01:59:06;;;;;;;4.50;4.13;;;;;;;;;;4998683;28;20229;-85
2023/08/01 02:01:34;;;;;;;4.57;4.18;;;;;;;;;;4981131;28;20614;-81
2023/08/01 02:04:00;;;;;;;5.13;4.75;;;;;;;;;;4982055;28;20230;-85
2023/08/01 02:06:28;;;;;;;5.65;5.18;;;;;;;;;;4995076;28;20244;-83
2023/08/01 02:08:54;;;;;;;5.32;4.80;;;;;;;;;;5000560;28;20463;-85
2023/08/01 02:11:22;;;;;;;5.10;4.70;;;;;;;;;;4962522;28;20210;-84
2023/08/01 02:13:48;;;;;;;5.50;5.10;;;;;;;;;;4991755;28;20217;-85
2023/08/01 02:16:15;;;;;;;5.25;4.95;;;;;;;;;;5013688;28;20702;-85
2023/08/01 02:18:41;;;;;;;5.80;5.32;;;;;;;;;;4983077;28;20240;-84
2023/08/01 02:21:09;;;;;;;5.05;4.75;;;;;;;;;;5003703;28;20230;-84
2023/08/01 02:23:37;;;;;;;5.43;4.90;;;;;;;;;;4997298;28;20221;-86
2023/08/01 02:26:08;;;;;;;5.10;4.78;;;;;;;;;;5002690;28;20225;-84
2023/08/01 02:28:36;;;;;;;6.47;5.88;;;;;;;;;;4991141;28;20221;-83
2023/08/01 02:31:04;;;;;;;6.65;6.05;;;;;;;;;;5007769;28;20875;-83
2023/08/01 02:33:30;;;;;;;7.13;6.53;;;;;;;;;;4988348;28;20222;-84
2023/08/01 02:35:55;;;;;;;7.63;6.82;;;;;;;;;;4991919;28;20698;-87
2023/08/01 02:38:21;;;;;;;6.55;6.05;;;;;;;;;;4985878;28;20592;-85
2023/08/01 02:40:46;;;;;;;6.65;6.05;;;;;;;;;;4988799;28;20221;-82
2023/08/01 02:43:12;;;;;;;6.93;6.32;;;;;;;;;;4986589;28;20284;-84
2023/08/01 02:45:46;;;;;;;6.88;6.38;;;;;;;;;;4992477;28;20214;-83
2023/08/01 02:48:14;;;;;;;7.45;6.85;;;;;;;;;;4988920;28;20222;-83
2023/08/01 02:50:42;;;;;;;7.57;6.85;;;;;;;;;;5006225;28;20218;-85
2023/08/01 02:53:11;;;;;;;7.38;6.65;;;;;;;;;;5006949;28;20233;-82
2023/08/01 02:55:38;;;;;;;6.90;6.20;;;;;;;;;;4990543;28;20240;-83
2023/08/01 02:58:04;;;;;;;8.80;7.95;;;;;;;;;;4978567;28;20320;-85
2023/08/01 03:00:31;;;;;;;7.63;6.82;;;;;;;;;;4998834;28;20214;-82
2023/08/01 03:02:59;;;;;;;7.18;6.45;;;;;;;;;;4994918;28;20272;-84
2023/08/01 03:05:27;;;;;;;7.32;6.68;;;;;;;;;;5003139;28;20229;-84
2023/08/01 03:07:55;;;;;;;7.70;7.03;;;;;;;;;;5012588;28;20623;-86
2023/08/01 03:10:24;;;;;;;6.82;6.32;;;;;;;;;;4989164;28;20297;-82
2023/08/01 03:12:52;;;;;;;7.03;6.43;;;;;;;;;;5000879;28;20214;-84
2023/08/01 03:15:18;;;;;;;8.52;6.57;;;;;;;;;;5007209;28;20230;-83
2023/08/01 03:17:43;;;;;;;6.70;6.20;;;;;;;;;;4985703;28;20230;-82
2023/08/01 03:20:10;;;;;;;7.00;6.30;;;;;;;;;;5007435;28;20231;-84
2023/08/01 03:22:39;;;;;;;6.18;5.78;;;;;;;;;;4991368;28;20236;-84
2023/08/01 03:25:07;;;;;;;6.47;5.97;;;;;;;;;;4990769;28;20222;-83
2023/08/01 03:27:38;;;;;;;6.10;5.50;;;;;;;;;;5002944;28;20244;-84
2023/08/01 03:30:04;;;;;;;6.45;5.95;;;;;;;;;;5005374;28;20226;-83
2023/08/01 03:32:32;;;;;;;6.32;5.82;;;;;;;;;;4987573;28;20258;-85
2023/08/01 03:35:02;;;;;;;6.85;6.35;;;;;;;;;;4981126;28;20272;-83
2023/08/01 03:37:31;;;;;;;7.38;6.82;;;;;;;;;;4986692;28;20226;-84
2023/08/01 03:39:57;;;;;;;6.90;6.40;;;;;;;;;;5010534;28;20605;-86
2023/08/01 03:42:22;;;;;;;6.85;6.35;;;;;;;;;;4998830;28;20230;-85
2023/08/01 03:44:48;;;;;;;7.47;6.32;;;;;;;;;;4980882;28;20706;-85
2023/08/01 03:47:13;;;;;;;7.00;6.40;;;;;;;;;;5012727;28;20289;-85
2023/08/01 03:49:41;;;;;;;6.60;6.20;;;;;;;;;;5005894;28;20238;-85
2023/08/01 03:52:07;;;;;;;7.50;6.85;;;;;;;;;;5002253;28;20257;-86
2023/08/01 03:54:32;;;;;;;6.65;6.15;;;;;;;;;;4985597;28;20226;-84
2023/08/01 03:56:58;;;;;;;7.70;6.50;;;;;;;;;;4984573;28;20230;-84
2023/08/01 03:59:26;;;;;;;7.05;6.35;;;;;;;;;;4979712;28;20238;-84
2023/08/01 04:05:38;;;;;;;7.85;7.15;;;;;;;;;;4979499;28;20249;-86
2023/08/01 04:08:09;;;;;;;7.72;7.13;;;;;;;;;;4998183;28;20230;-85
2023/08/01 04:10:34;;;;;;;7.82;7.13;;;;;;;;;;4969271;28;20329;-84
2023/08/01 04:13:00;;;;;;;8.80;8.00;;;;;;;;;;5005117;28;20229;-84
2023/08/01 04:15:25;;;;;;;8.57;7.88;;;;;;;;;;4984637;28;20228;-86
2023/08/01 04:17:54;;;;;;;8.13;7.53;;;;;;;;;;4986743;28;20819;-87
2023/08/01 04:20:22;;;;;;;8.43;7.63;;;;;;;;;;4984403;28;20224;-85
2023/08/01 04:22:50;;;;;;;8.52;7.82;;;;;;;;;;4979918;28;20311;-86
2023/08/01 04:25:18;;;;;;;7.30;6.70;;;;;;;;;;4978853;28;20580;-87
2023/08/01 04:27:48;;;;;;;7.35;6.80;;;;;;;;;;4978705;28;20273;-86
2023/08/01 04:30:18;;;;;;;8.27;7.65;;;;;;;;;;4999248;28;20914;-86
2023/08/01 04:32:44;;;;;;;9.27;8.48;;;;;;;;;;4984510;28;20222;-86
2023/08/01 04:35:09;;;;;;;8.00;7.40;;;;;;;;;;4979417;28;20221;-85
2023/08/01 04:37:37;;;;;;;9.70;8.55;;;;;;;;;;4994961;28;20661;-85
2023/08/01 04:40:03;;;;;;;8.43;7.80;;;;;;;;;;4978411;28;20297;-83
2023/08/01 04:42:29;;;;;;;9.23;8.35;;;;;;;;;;4984910;28;20226;-86
2023/08/01 04:44:54;;;;;;;8.82;7.82;;;;;;;;;;4994091;28;20240;-85
2023/08/01 04:47:20;;;;;;;7.47;6.88;;;;;;;;;;4944915;28;20218;-85
2023/08/01 04:49:48;;;;;;;8.85;7.32;;;;;;;;;;4999849;28;20213;-87
2023/08/01 04:52:14;;;;;;;7.85;7.20;;;;;;;;;;4970431;28;20244;-86
2023/08/01 04:54:41;;;;;;;6.88;6.28;;;;;;;;;;4997058;28;20221;-86
2023/08/01 04:57:10;;;;;;;7.10;6.50;;;;;;;;;;4982997;28;20240;-86
2023/08/01 04:59:35;;;;;;;7.45;6.85;;;;;;;;;;4965211;28;20244;-86
2023/08/01 05:02:01;;;;;;;6.43;5.93;;;;;;;;;;5011248;28;20222;-85
2023/08/01 05:04:27;;;;;;;6.43;6.00;;;;;;;;;;4980366;28;20229;-85
2023/08/01 05:06:54;;;;;;;6.00;5.53;;;;;;;;;;4998146;28;20248;-86
2023/08/01 05:09:22;;;;;;;6.32;5.47;;;;;;;;;;4980169;28;20828;-84
2023/08/01 05:11:47;;;;;;;6.07;5.47;;;;;;;;;;5003870;28;20222;-85
2023/08/01 05:14:13;;;;;;;5.65;5.13;;;;;;;;;;4996014;28;20226;-87
2023/08/01 05:16:41;;;;;;;6.18;5.68;;;;;;;;;;4994068;28;20225;-85
2023/08/01 05:19:06;;;;;;;5.97;5.53;;;;;;;;;;4975326;28;20237;-84
2023/08/01 05:21:32;;;;;;;5.97;5.35;;;;;;;;;;4980416;28;20221;-85
2023/08/01 05:24:00;;;;;;;5.90;5.20;;;;;;;;;;4999769;28;20213;-87
2023/08/01 05:26:25;;;;;;;5.22;4.82;;;;;;;;;;4998428;28;20233;-83
2023/08/01 05:28:53;;;;;;;5.85;5.35;;;;;;;;;;4993273;28;20783;-87
2023/08/01 05:31:18;;;;;;;5.57;5.13;;;;;;;;;;4992517;28;20292;-82
2023/08/01 05:33:46;;;;;;;5.95;5.45;;;;;;;;;;4998501;28;20225;-85
2023/08/01 05:36:12;;;;;;;5.68;5.15;;;;;;;;;;5019340;28;20222;-84
2023/08/01 05:38:40;;;;;;;5.72;5.32;;;;;;;;;;4984583;28;20328;-84
2023/08/01 05:41:08;;;;;;;6.15;5.38;;;;;;;;;;4982596;28;20231;-85
2023/08/01 05:43:35;;;;;;;5.78;5.38;;;;;;;;;;4979868;28;20234;-87
2023/08/01 05:46:04;;;;;;;6.45;5.82;;;;;;;;;;4994840;28;20228;-84
2023/08/01 05:48:32;;;;;;;7.18;5.78;;;;;;;;;;4964027;28;20691;-83
2023/08/01 05:50:58;;;;;;;5.70;5.20;;;;;;;;;;4977423;28;20237;-86
2023/08/01 05:53:23;;;;;;;5.35;4.93;;;;;;;;;;4982121;28;20694;-86
2023/08/01 05:55:51;;;;;;;6.82;6.22;;;;;;;;;;4994807;28;20680;-85
2023/08/01 05:58:19;;;;;;;6.30;5.15;;;;;;;;;;4981205;28;20235;-84
2023/08/01 06:00:49;;;;;;;6.43;5.70;;;;;;;;;;5002056;28;20233;-85
2023/08/01 06:03:17;;;;;;;6.85;6.13;;;;;;;;;;4990786;28;20671;-86
2023/08/01 06:05:43;;;;;;;6.00;5.60;;;;;;;;;;4984721;28;20222;-84
2023/08/01 06:08:08;;;;;;;6.47;5.97;;;;;;;;;;4985845;28;20229;-86
2023/08/01 06:10:37;;;;;;;7.80;6.70;;;;;;;;;;4979006;28;20223;-86
2023/08/01 06:13:05;;;;;;;7.13;6.53;;;;;;;;;;4993215;28;20237;-86
2023/08/01 06:15:31;;;;;;;8.70;6.32;;;;;;;;;;4963933;28;20229;-87
2023/08/01 06:17:58;;;;;;;7.00;6.30;;;;;;;;;;5006798;28;20230;-82
2023/08/01 06:20:26;;;;;;;7.10;6.50;;;;;;;;;;4985279;28;20220;-86
2023/08/01 06:22:54;;;;;;;7.68;6.22;;;;;;;;;;4994853;28;20234;-85
2023/08/01 06:25:22;;;;;;;7.45;6.40;;;;;;;;;;4998142;28;20268;-85
2023/08/01 06:27:47;;;;;;;8.07;7.35;;;;;;;;;;4992652;28;20221;-87
2023/08/01 06:30:13;;;;;;;7.50;6.80;;;;;;;;;;4985179;28;20225;-86
2023/08/01 06:32:41;;;;;;;7.57;6.95;;;;;;;;;;4996031;28;20702;-84
2023/08/01 06:35:06;;;;;;;7.90;7.10;;;;;;;;;;4986592;28;20317;-86
2023/08/01 06:37:32;;;;;;;7.80;7.05;;;;;;;;;;4971649;28;20317;-87
2023/08/01 06:39:58;;;;;;;7.30;6.80;;;;;;;;;;4947462;28;20219;-86
2023/08/01 06:42:26;;;;;;;7.90;7.10;;;;;;;;;;4943715;28;20373;-85
2023/08/01 06:44:53;;;;;;;7.60;6.90;;;;;;;;;;4962805;28;20269;-85
2023/08/01 06:47:21;;;;;;;8.02;7.25;;;;;;;;;;4988353;28;20237;-84
2023/08/01 06:49:47;;;;;;;8.55;7.35;;;;;;;;;;5001783;28;20289;-84
2023/08/01 06:52:12;;;;;;;8.38;7.57;;;;;;;;;;4950003;28;20221;-86
2023/08/01 06:54:39;;;;;;;7.90;7.15;;;;;;;;;;4978052;28;20257;-86
2023/08/01 06:57:06;;;;;;;7.70;6.97;;;;;;;;;;5001058;28;20980;-84
2023/08/01 06:59:31;;;;;;;8.63;7.20;;;;;;;;;;4985155;28;20284;-84
2023/08/01 07:01:57;;;;;;;8.80;7.57;;;;;;;;;;5004720;28;20233;-87
2023/08/01 07:04:25;;;;;;;8.18;7.38;;;;;;;;;;4952989;28;20238;-85
2023/08/01 07:06:52;;;;;;;9.07;7.68;;;;;;;;;;5001791;28;20721;-84
2023/08/01 07:09:18;;;;;;;7.55;6.88;;;;;;;;;;5017975;28;20225;-85
2023/08/01 07:11:48;;;;;;;8.48;7.20;;;;;;;;;;5007842;28;20232;-86
2023/08/01 07:14:18;;;;;;;9.05;7.03;;;;;;;;;;4998734;28;20384;-87
2023/08/01 07:16:46;;;;;;;8.55;6.43;;;;;;;;;;5008413;28;20225;-85
2023/08/01 07:19:14;;;;;;;6.65;6.05;;;;;;;;;;4986849;28;20230;-85
2023/08/01 07:21:44;;;;;;;6.70;6.00;;;;;;;;;;4972498;28;20244;-83
2023/08/01 07:32:43;;;;;;;9.60;5.47;;;;;;;;;;5140401;27;21088;-76
2023/08/01 07:35:09;;;;;;;5.43;4.70;;;;;;;;;;5097547;27;20237;-76
2023/08/01 07:37:37;;;;;;;5.00;4.60;;;;;;;;;;5088545;28;20224;-76
2023/08/01 07:40:07;;;;;;;6.47;4.43;;;;;;;;;;5100100;27;20222;-74
2023/08/01 07:42:32;;;;;;;7.57;4.40;;;;;;;;;;5087131;28;20232;-75
2023/08/01 07:45:00;;;;;;;4.38;3.97;;;;;;;;;;5100804;28;20314;-77
2023/08/01 07:47:28;;;;;;;7.00;4.85;;;;;;;;;;5086368;27;20674;-75
2023/08/01 07:49:57;;;;;;;6.22;4.40;;;;;;;;;;5085709;28;20217;-75
2023/08/01 07:52:26;;;;;;;8.00;4.45;;;;;;;;;;5055008;22;20236;-85
2023/08/01 07:54:57;;;;;;;5.28;4.78;;;;;;;;;;5024239;28;20299;-84
2023/08/01 07:57:22;;;;;;;5.85;5.05;;;;;;;;;;5024666;28;20292;-85
2023/08/01 07:59:48;;;;;;;5.45;4.50;;;;;;;;;;5032312;28;20223;-84
2023/08/01 08:02:13;;;;;;;12.50;4.68;;;;;;;;;;5059909;28;20294;-83
2023/08/01 08:04:41;;;;;;;5.45;4.30;;;;;;;;;;5032333;28;20238;-86
2023/08/01 08:07:07;;;;;;;6.05;4.60;;;;;;;;;;5057267;28;20223;-84
2023/08/01 08:09:32;;;;;;;5.22;4.68;;;;;;;;;;5010634;28;20217;-84
2023/08/01 08:11:58;;;;;;;5.55;4.45;;;;;;;;;;5069882;28;20676;-81
2023/08/01 08:14:23;;;;;;;8.25;5.32;;;;;;;;;;5027475;28;20227;-82
2023/08/01 08:16:49;;;;;;;9.52;5.32;;;;;;;;;;5016389;28;20215;-84
2023/08/01 08:19:18;;;;;;;5.88;4.50;;;;;;;;;;5047326;28;20210;-86
2023/08/01 08:21:43;;;;;;;5.28;4.78;;;;;;;;;;5020391;28;20733;-84
2023/08/01 08:24:11;;;;;;;5.85;4.20;;;;;;;;;;5016573;28;20772;-83
2023/08/01 08:26:39;;;;;;;5.78;4.38;;;;;;;;;;5022302;28;20220;-85
2023/08/01 08:29:05;;;;;;;5.22;3.65;;;;;;;;;;5023287;28;20722;-86
2023/08/01 08:31:32;;;;;;;6.75;4.15;;;;;;;;;;5042724;28;20239;-85
2023/08/01 08:33:57;;;;;;;4.07;3.67;;;;;;;;;;5015540;28;20228;-85
2023/08/01 08:36:25;;;;;;;4.68;3.45;;;;;;;;;;5041998;28;20233;-86
2023/08/01 08:38:51;;;;;;;7.20;4.28;;;;;;;;;;5041546;28;20237;-80
2023/08/01 08:41:20;;;;;;;5.03;3.60;;;;;;;;;;5052705;28;20227;-78
2023/08/01 08:43:45;;;;;;;5.80;2.92;;;;;;;;;;5038315;28;20227;-78
2023/08/01 08:46:12;;;;;;;4.55;3.08;;;;;;;;;;5037349;28;20223;-79
2023/08/01 08:48:38;;;;;;;3.67;2.97;;;;;;;;;;5024688;28;21137;-81
2023/08/01 08:51:06;;;;;;;3.25;2.42;;;;;;;;;;5044212;28;20228;-78
2023/08/01 08:53:32;;;;;;;3.60;2.10;;;;;;;;;;5005882;28;20224;-78
2023/08/01 08:56:00;;;;;;;4.95;2.03;;;;;;;;;;5030016;28;20284;-77
2023/08/01 08:58:29;;;;;;;1.85;1.42;;;;;;;;;;5042137;28;20281;-78
2023/08/01 09:00:54;;;;;;;1.88;1.58;;;;;;;;;;5027462;28;20652;-78
2023/08/01 09:03:22;;;;;;;1.73;1.50;;;;;;;;;;5044546;28;20221;-81
2023/08/01 09:05:52;;;;;;;7.75;2.55;;;;;;;;;;5042927;28;20215;-80
2023/08/01 09:08:21;;;;;;;9.43;2.75;;;;;;;;;;5038926;28;20208;-79
2023/08/01 09:10:46;;;;;;;3.63;1.60;;;;;;;;;;5036408;28;20224;-79
2023/08/01 09:13:12;;;;;;;1.40;1.30;;;;;;;;;;5039134;28;20215;-79
2023/08/01 09:15:38;;;;;;;1.50;1.40;;;;;;;;;;5010283;28;20227;-78
2023/08/01 09:18:06;;;;;;;1.90;1.48;;;;;;;;;;5021920;28;20660;-81
2023/08/01 09:20:42;;;;;;;2.15;1.67;;;;;;;;;;5004321;28;20228;-78
2023/08/01 09:23:11;;;;;;;1.70;1.55;;;;;;;;;;5038494;28;20290;-78
2023/08/01 09:25:39;;;;;;;3.42;1.58;;;;;;;;;;5044129;28;20279;-78
2023/08/01 09:28:20;;;;;;;2.28;1.70;;;;;;;;;;5034964;28;20219;-77
2023/08/01 09:30:54;;;;;;;1.70;1.60;;;;;;;;;;5040011;28;20238;-80
2023/08/01 09:33:19;;;;;;;2.35;1.30;;;;;;;;;;5036292;28;20231;-79
2023/08/01 09:35:51;;;;;;;2.80;1.70;;;;;;;;;;5024426;28;21124;-79
2023/08/01 09:38:17;;;;;;;2.53;1.55;;;;;;;;;;5024265;28;20223;-79
2023/08/01 09:40:50;;;;;;;1.85;1.50;;;;;;;;;;5039887;28;20958;-80
2023/08/01 09:43:16;;;;;;;1.83;1.15;;;;;;;;;;5021388;28;20216;-78
2023/08/01 09:45:54;;;;;;;2.10;1.50;;;;;;;;;;5044432;28;20241;-80
2023/08/01 09:48:26;;;;;;;2.33;1.30;;;;;;;;;;5023200;28;20219;-79
2023/08/01 09:50:53;;;;;;;2.25;1.80;;;;;;;;;;5025268;28;20918;-80
2023/08/01 09:53:18;;;;;;;2.05;1.55;;;;;;;;;;5020933;28;20220;-79
2023/08/01 09:55:46;;;;;;;3.53;1.35;;;;;;;;;;5044065;28;20230;-79
2023/08/01 09:58:12;;;;;;;1.50;1.40;;;;;;;;;;5024244;28;20212;-77
2023/08/01 10:00:37;;;;;;;1.52;1.33;;;;;;;;;;5010100;28;20746;-79
2023/08/01 10:03:07;;;;;;;5.10;2.17;;;;;;;;;;5056842;28;20215;-80
2023/08/01 10:05:34;;;;;;;1.75;1.15;;;;;;;;;;5007137;28;20576;-78
2023/08/01 10:08:00;;;;;;;1.25;1.15;;;;;;;;;;5020047;28;20299;-82
2023/08/01 10:10:26;;;;;;;1.55;1.10;;;;;;;;;;5025607;28;20236;-79
2023/08/01 10:12:52;;;;;;;1.98;1.30;;;;;;;;;;5030792;28;20285;-81
2023/08/01 10:15:17;;;;;;;5.63;2.22;;;;;;;;;;5061270;28;20618;-80
2023/08/01 10:17:44;;;;;;;1.27;1.20;;;;;;;;;;5015034;28;20243;-81
2023/08/01 10:20:10;;;;;;;1.65;1.20;;;;;;;;;;5024518;28;20288;-79
2023/08/01 10:22:35;;;;;;;1.75;1.30;;;;;;;;;;5044883;28;20223;-79
2023/08/01 10:25:01;;;;;;;6.97;2.90;;;;;;;;;;5010280;28;20212;-81
2023/08/01 10:27:26;;;;;;;5.97;2.10;;;;;;;;;;5020722;28;20211;-80
2023/08/01 10:30:06;;;;;;;1.85;1.33;;;;;;;;;;5033899;28;20223;-80
2023/08/01 10:32:38;;;;;;;1.33;1.10;;;;;;;;;;5031648;28;20230;-80
2023/08/01 10:35:09;;;;;;;2.60;1.10;;;;;;;;;;5019105;28;20216;-80
2023/08/01 10:37:47;;;;;;;2.13;1.17;;;;;;;;;;5026217;28;20216;-82
2023/08/01 10:40:12;;;;;;;4.63;1.63;;;;;;;;;;5042523;28;20759;-78
2023/08/01 10:42:42;;;;;;;1.45;1.00;;;;;;;;;;5036031;28;20239;-81
2023/08/01 10:45:20;;;;;;;1.30;0.88;;;;;;;;;;5043512;28;20227;-77
2023/08/01 10:47:45;;;;;;;1.10;0.88;;;;;;;;;;5046674;28;20216;-77
2023/08/01 10:50:15;;;;;;;2.08;1.10;;;;;;;;;;5035528;28;20625;-78
2023/08/01 10:52:41;;;;;;;1.27;1.00;;;;;;;;;;5035549;28;20297;-79
2023/08/01 10:55:07;;;;;;;1.25;1.15;;;;;;;;;;5003824;28;20212;-78
2023/08/01 10:57:38;;;;;;;1.63;1.23;;;;;;;;;;5057690;28;20239;-80
2023/08/01 11:00:09;;;;;;;1.67;1.25;;;;;;;;;;5018296;28;20211;-79
2023/08/01 11:02:35;;;;;;;2.35;1.83;;;;;;;;;;5037150;28;20230;-81
2023/08/01 11:05:05;;;;;;;1.58;1.38;;;;;;;;;;5039468;28;20224;-80
2023/08/01 11:07:30;;;;;;;5.20;1.92;;;;;;;;;;5028872;28;20263;-79
2023/08/01 11:10:10;;;;;;;4.70;1.58;;;;;;;;;;5022325;28;20246;-85
2023/08/01 11:12:43;;;;;;;3.00;1.73;;;;;;;;;;5056413;28;20597;-81
2023/08/01 11:15:13;;;;;;;3.85;1.95;;;;;;;;;;5036719;28;20220;-81
2023/08/01 11:17:45;;;;;;;3.97;1.83;;;;;;;;;;5030513;28;20247;-82
2023/08/01 11:20:13;;;;;;;3.35;1.52;;;;;;;;;;5024846;28;20220;-79
2023/08/01 11:23:04;;;;;;;3.47;1.23;;;;;;;;;;5007720;28;20223;-82
2023/08/01 11:25:43;;;;;;;2.15;1.00;;;;;;;;;;5033311;28;20243;-83
2023/08/01 11:28:15;;;;;;;1.60;1.17;;;;;;;;;;5023827;28;20302;-82
2023/08/01 11:30:41;;;;;;;1.63;1.15;;;;;;;;;;5010907;28;20302;-82
2023/08/01 11:33:22;;;;;;;2.80;1.23;;;;;;;;;;5053156;28;20275;-79
2023/08/01 11:36:00;;;;;;;3.80;1.30;;;;;;;;;;5009297;28;20216;-79
2023/08/01 11:38:29;;;;;;;1.25;1.05;;;;;;;;;;5039405;28;20682;-80
2023/08/01 11:40:56;;;;;;;5.15;1.70;;;;;;;;;;5039985;28;20212;-81
2023/08/01 11:43:21;;;;;;;3.00;1.38;;;;;;;;;;5044308;28;20283;-82
2023/08/01 11:46:01;;;;;;;1.50;1.17;;;;;;;;;;5025945;28;20262;-81
2023/08/01 11:48:27;;;;;;;1.10;1.00;;;;;;;;;;5027657;28;20200;-79
2023/08/01 11:50:59;;;;;;;1.77;1.02;;;;;;;;;;4999743;28;20239;-77
2023/08/01 11:53:25;;;;;;;1.13;1.00;;;;;;;;;;5053648;28;20227;-80
2023/08/01 11:55:56;;;;;;;0.85;0.80;;;;;;;;;;5052915;28;20223;-79
2023/08/01 11:58:31;;;;;;;2.58;1.00;;;;;;;;;;5022311;28;20231;-81
2023/08/01 12:01:11;;;;;;;1.15;1.00;;;;;;;;;;5036372;28;20237;-79
2023/08/01 12:03:46;;;;;;;1.02;0.90;;;;;;;;;;5030703;28;20230;-82
2023/08/01 12:06:15;;;;;;;0.88;0.80;;;;;;;;;;5026935;28;20224;-79
2023/08/01 12:08:50;;;;;;;0.70;0.52;;;;;;;;;;5026383;28;20606;-81
2023/08/01 12:11:21;;;;;;;1.10;1.00;;;;;;;;;;5048612;28;20220;-81
2023/08/01 12:13:47;;;;;;;0.95;0.80;;;;;;;;;;5051410;28;20283;-81
2023/08/01 12:16:15;;;;;;;0.80;0.70;;;;;;;;;;5029125;28;20286;-82
2023/08/01 12:18:44;;;;;;;1.13;1.02;;;;;;;;;;5029163;28;20220;-84
2023/08/01 12:21:10;;;;;;;0.80;0.80;;;;;;;;;;5034877;28;20219;-80
2023/08/01 12:23:36;;;;;;;3.90;0.80;;;;;;;;;;5027811;28;20948;-83
2023/08/01 12:26:01;;;;;;;2.25;1.00;;;;;;;;;;5044897;28;20238;-82
2023/08/01 12:28:32;;;;;;;1.35;0.73;;;;;;;;;;5012425;28;20243;-79
2023/08/01 12:31:00;;;;;;;0.85;0.75;;;;;;;;;;5003116;28;20239;-82
2023/08/01 12:33:25;;;;;;;0.65;0.50;;;;;;;;;;5016218;28;20216;-82
2023/08/01 12:35:53;;;;;;;0.47;0.47;;;;;;;;;;5046583;28;20228;-81
2023/08/01 12:38:18;;;;;;;0.50;0.50;;;;;;;;;;5037554;28;20273;-78
2023/08/01 12:40:46;;;;;;;0.50;0.50;;;;;;;;;;5016199;28;20232;-78
2023/08/01 12:43:12;;;;;;;0.68;0.50;;;;;;;;;;5035475;28;20306;-80
2023/08/01 12:45:38;;;;;;;0.88;0.70;;;;;;;;;;5021317;28;20306;-80
2023/08/01 12:48:04;;;;;;;0.98;0.70;;;;;;;;;;5038374;28;20226;-80
2023/08/01 12:50:29;;;;;;;1.63;0.60;;;;;;;;;;5032714;28;20243;-81
2023/08/01 12:53:00;;;;;;;6.78;0.68;;;;;;;;;;5068809;28;20223;-83
2023/08/01 12:55:35;;;;;;;1.40;0.82;;;;;;;;;;5033107;28;20223;-81
2023/08/01 12:58:03;;;;;;;0.98;0.77;;;;;;;;;;5035104;28;20226;-82
2023/08/01 13:00:32;;;;;;;1.05;0.70;;;;;;;;;;5031007;28;20223;-82
2023/08/01 13:02:57;;;;;;;2.00;0.63;;;;;;;;;;5032757;28;20709;-82
2023/08/01 13:05:23;;;;;;;2.25;0.70;;;;;;;;;;5024800;28;20219;-83
2023/08/01 13:07:49;;;;;;;0.40;0.40;;;;;;;;;;5029068;28;20230;-82
2023/08/01 13:10:17;;;;;;;1.17;0.80;;;;;;;;;;5016994;28;20223;-83
2023/08/01 13:12:43;;;;;;;0.98;0.50;;;;;;;;;;5044223;28;20212;-80
2023/08/01 13:15:09;;;;;;;1.45;0.60;;;;;;;;;;5017715;28;20224;-81
2023/08/01 13:17:39;;;;;;;1.13;0.73;;;;;;;;;;5032248;28;20227;-79
2023/08/01 13:20:05;;;;;;;1.45;0.80;;;;;;;;;;5048286;28;20224;-78
2023/08/01 13:22:31;;;;;;;2.17;0.75;;;;;;;;;;5012041;28;20212;-82
2023/08/01 13:24:57;;;;;;;1.50;1.00;;;;;;;;;;5071525;28;20230;-83
2023/08/01 13:27:23;;;;;;;2.22;1.00;;;;;;;;;;5051462;28;20228;-78
2023/08/01 13:29:52;;;;;;;1.50;0.90;;;;;;;;;;5042196;28;20288;-83
2023/08/01 13:32:18;;;;;;;1.13;0.85;;;;;;;;;;5049973;28;20283;-79
2023/08/01 13:34:43;;;;;;;0.95;0.73;;;;;;;;;;5052339;28;20300;-79
2023/08/01 13:37:13;;;;;;;0.98;0.88;;;;;;;;;;5000059;28;20215;-82
2023/08/01 13:39:38;;;;;;;1.40;1.00;;;;;;;;;;5035495;28;20231;-82
2023/08/01 13:42:04;;;;;;;2.53;1.05;;;;;;;;;;5054487;28;20223;-81
2023/08/01 13:44:30;;;;;;;1.05;0.90;;;;;;;;;;5033527;28;20288;-78
2023/08/01 13:47:00;;;;;;;0.80;0.80;;;;;;;;;;5043746;28;20256;-81
2023/08/01 13:49:27;;;;;;;1.17;0.95;;;;;;;;;;5044479;28;20318;-81
2023/08/01 13:51:53;;;;;;;1.17;0.93;;;;;;;;;;5032714;28;20305;-85
2023/08/01 13:54:18;;;;;;;1.42;0.93;;;;;;;;;;5028369;28;20232;-81
2023/08/01 13:56:46;;;;;;;1.48;1.02;;;;;;;;;;5027666;28;20239;-82
2023/08/01 13:59:12;;;;;;;2.88;1.17;;;;;;;;;;5033677;28;20210;-81
2023/08/01 14:01:37;;;;;;;2.22;1.38;;;;;;;;;;5054636;28;20251;-82
2023/08/01 14:04:04;;;;;;;1.23;1.05;;;;;;;;;;5043684;28;20572;-81
2023/08/01 14:06:32;;;;;;;5.47;2.00;;;;;;;;;;5026249;28;20227;-81
2023/08/01 14:09:04;;;;;;;3.40;1.80;;;;;;;;;;5047978;28;20220;-80
2023/08/01 14:11:34;;;;;;;2.88;1.50;;;;;;;;;;5037069;28;20584;-85
2023/08/01 14:14:02;;;;;;;2.95;1.45;;;;;;;;;;5029700;28;20216;-82
2023/08/01 14:16:28;;;;;;;1.52;1.42;;;;;;;;;;5030291;28;20221;-82
2023/08/01 14:18:56;;;;;;;2.88;1.70;;;;;;;;;;5052868;28;20232;-80
2023/08/01 14:21:21;;;;;;;2.45;1.38;;;;;;;;;;5025604;28;21077;-80
2023/08/01 14:23:49;;;;;;;3.67;1.90;;;;;;;;;;5018141;28;20212;-81
2023/08/01 14:26:15;;;;;;;2.58;1.95;;;;;;;;;;5061017;28;20220;-77
2023/08/01 14:28:40;;;;;;;5.18;2.00;;;;;;;;;;5009447;28;20216;-78
2023/08/01 14:31:07;;;;;;;3.08;1.98;;;;;;;;;;5023458;28;20258;-80
2023/08/01 14:33:33;;;;;;;2.65;1.90;;;;;;;;;;5019182;28;20237;-80
2023/08/01 14:35:58;;;;;;;3.15;1.90;;;;;;;;;;5042829;28;20246;-79
2023/08/01 14:38:24;;;;;;;4.45;1.73;;;;;;;;;;5010877;28;20223;-77
2023/08/01 14:40:49;;;;;;;1.52;1.30;;;;;;;;;;5028301;28;20755;-78
2023/08/01 14:43:20;;;;;;;1.95;1.42;;;;;;;;;;5024400;28;20232;-79
2023/08/01 14:45:48;;;;;;;2.35;1.52;;;;;;;;;;5041542;28;20289;-77
2023/08/01 14:48:14;;;;;;;1.77;1.20;;;;;;;;;;5018930;28;20215;-78
2023/08/01 14:50:45;;;;;;;2.53;1.50;;;;;;;;;;5038389;28;20250;-78
2023/08/01 14:53:10;;;;;;;2.38;1.70;;;;;;;;;;5036930;28;20220;-80
2023/08/01 14:55:36;;;;;;;2.15;1.55;;;;;;;;;;5039916;28;20230;-77
2023/08/01 14:58:01;;;;;;;3.22;1.70;;;;;;;;;;5039492;28;20227;-78